This is the latest recevied weather packets stored in our database for station/object EB2EMZ-W. If no packets are shown the sender has not sent any weather packets the latest 10 day(s).
| Time | Temp. | Humidity | Pressure | Rain* | Wind** | Luminosity | Snow |
|---|---|---|---|---|---|---|---|
| 1787985488 | 16.11° C | 73% | 1002 hPa | 0 mm | - | - | - |
| 1787983680 | 16.11° C | 73% | 1002 hPa | 0 mm | - | - | - |
| 1787981873 | 15.56° C | 75% | 1002 hPa | 0 mm | - | - | - |
| 1787980064 | 16.11° C | 73% | 1002 hPa | 0 mm | - | - | - |
| 1787978257 | 16.11° C | 75% | 1002 hPa | 0 mm | - | - | - |
| 1787976450 | 16.11° C | 73% | 1002 hPa | 0 mm | - | - | - |
| 1787974642 | 16.67° C | 72% | 1003 hPa | 0 mm | - | - | - |
| 1787972835 | 16.67° C | 72% | 1003 hPa | 0 mm | - | - | - |
| 1787971027 | 16.67° C | 73% | 1003 hPa | 0 mm | - | - | - |
| 1787969218 | 17.22° C | 70% | 1003 hPa | 0 mm | - | - | - |
| 1787967411 | 17.78° C | 70% | 1003 hPa | 0 mm | - | - | - |
| 1787965602 | 17.78° C | 71% | 1004 hPa | 0 mm | - | - | - |
| 1787963795 | 18.33° C | 68% | 1003 hPa | 0 mm | - | - | - |
| 1787961987 | 17.78° C | 69% | 1004 hPa | 0 mm | - | - | - |
| 1787960179 | 18.33° C | 66% | 1004 hPa | 0 mm | - | - | - |
| 1787957517 | 18.89° C | 66% | 1005 hPa | 0 mm | - | - | - |
| 1787955696 | 18.89° C | 66% | 1005 hPa | 0 mm | - | - | - |
| 1787953877 | 19.44° C | 62% | 1005 hPa | 0 mm | - | - | - |
| 1787952055 | 19.44° C | 60% | 1005 hPa | 0 mm | - | - | - |
| 1787950236 | 20° C | 56% | 1005 hPa | 0 mm | - | - | - |
| 1787948416 | 20.56° C | 53% | 1005 hPa | 0 mm | - | - | - |
| 1787946596 | 21.11° C | 48% | 1005 hPa | 0 mm | - | - | - |
| 1787944775 | 22.22° C | 44% | 1004 hPa | 0 mm | - | - | - |
| 1787942955 | 22.78° C | 42% | 1004 hPa | 0 mm | - | - | - |
| 1787941135 | 23.89° C | 35% | 1004 hPa | 0 mm | - | - | - |
* Rain latest hour (hover to see other rain measurements)
** Current wind speed in m/s (hover to see current wind gust speed)